Time;durP1;ratioP1;P1;durP2;ratioP2;P2;SDS_P1;SDS_P2;PMS_P1;PMS_P2;Temp;Humidity;BMP_temperature;BMP_pressure;BME280_temperature;BME280_humidity;BME280_pressure;Samples;Min_cycle;Max_cycle;Signal;HPM_P1;HPM_P2
2022/09/25 00:00:07;;;;;;;;;;;12.10;99.90;;;;;;8409577;28;19934;-79
2022/09/25 00:04:09;;;;;;;;;;;12.00;99.90;;;;;;8407128;28;19928;-79
2022/09/25 00:08:11;;;;;;;;;;;11.90;99.90;;;;;;8412007;28;19976;-78
2022/09/25 00:12:13;;;;;;;;;;;11.90;99.90;;;;;;8411455;28;20368;-79
2022/09/25 00:16:16;;;;;;;;;;;11.70;99.90;;;;;;8433476;27;20522;-79
2022/09/25 00:20:22;;;;;;;;;;;11.60;99.90;;;;;;8405110;28;19920;-79
2022/09/25 00:24:25;;;;;;;;;;;11.60;99.90;;;;;;8405442;28;20382;-79
2022/09/25 00:28:28;;;;;;;;;;;11.50;99.90;;;;;;8414853;28;20121;-79
2022/09/25 00:32:30;;;;;;;;;;;11.50;99.90;;;;;;8419249;28;20018;-79
2022/09/25 00:36:31;;;;;;;;;;;11.40;99.90;;;;;;8456789;27;19920;-79
2022/09/25 00:40:33;;;;;;;;;;;11.40;99.90;;;;;;8423675;28;19926;-79
2022/09/25 00:44:56;;;;;;;;;;;11.30;99.90;;;;;;8415753;28;19920;-79
2022/09/25 00:49:02;;;;;;;;;;;11.30;99.90;;;;;;8414700;28;19937;-79
2022/09/25 00:53:07;;;;;;;;;;;11.20;99.90;;;;;;8414935;28;19952;-79
2022/09/25 00:57:11;;;;;;;;;;;11.30;99.90;;;;;;8402339;28;20340;-79
2022/09/25 01:01:13;;;;;;;;;;;11.20;99.90;;;;;;8410186;28;19920;-78
2022/09/25 01:05:17;;;;;;;;;;;11.20;99.90;;;;;;8397963;28;19981;-79
2022/09/25 01:09:19;;;;;;;;;;;11.20;99.90;;;;;;8433130;28;19923;-79
2022/09/25 01:13:21;;;;;;;;;;;11.10;99.90;;;;;;8415522;28;20282;-78
2022/09/25 01:17:25;;;;;;;;;;;11.10;99.90;;;;;;8415700;28;19923;-79
2022/09/25 01:21:27;;;;;;;;;;;11.00;99.90;;;;;;8415939;28;19928;-78
2022/09/25 01:25:38;;;;;;;;;;;11.00;99.90;;;;;;8408191;28;20011;-78
2022/09/25 01:29:43;;;;;;;;;;;10.90;99.90;;;;;;8421292;28;20373;-79
2022/09/25 01:33:47;;;;;;;;;;;10.90;99.90;;;;;;8445211;27;20028;-79
2022/09/25 01:37:51;;;;;;;;;;;10.80;99.90;;;;;;8411928;28;19936;-78
2022/09/25 01:41:56;;;;;;;;;;;10.80;99.90;;;;;;8413360;28;19919;-79
2022/09/25 01:46:00;;;;;;;;;;;10.80;99.90;;;;;;8420203;28;19924;-78
2022/09/25 01:50:05;;;;;;;;;;;10.70;99.90;;;;;;8418205;28;19954;-79
2022/09/25 01:54:13;;;;;;;;;;;10.70;99.90;;;;;;8421793;28;19926;-79
2022/09/25 02:03:24;;;;;;;;;;;10.60;99.90;;;;;;8407223;28;19946;-79
2022/09/25 02:07:35;;;;;;;;;;;10.50;99.90;;;;;;8415548;28;19970;-79
2022/09/25 02:11:39;;;;;;;;;;;10.50;99.90;;;;;;8413941;28;20356;-78
2022/09/25 02:26:07;;;;;;;;;;;10.40;99.90;;;;;;8394628;28;19968;-78
2022/09/25 02:30:10;;;;;;;;;;;10.30;99.90;;;;;;8397957;28;19923;-78
2022/09/25 02:34:12;;;;;;;;;;;10.30;99.90;;;;;;8402646;28;19923;-78
2022/09/25 02:38:15;;;;;;;;;;;10.30;99.90;;;;;;8419416;28;19930;-78
2022/09/25 02:42:26;;;;;;;;;;;10.20;99.90;;;;;;8447394;27;19919;-78
2022/09/25 02:46:35;;;;;;;;;;;10.20;99.90;;;;;;8419470;28;19928;-79
2022/09/25 02:50:52;;;;;;;;;;;10.20;99.90;;;;;;8408518;28;19944;-78
2022/09/25 02:55:03;;;;;;;;;;;10.10;99.90;;;;;;8417242;28;19997;-78
2022/09/25 02:59:10;;;;;;;;;;;10.10;99.90;;;;;;8415235;28;20304;-79
2022/09/25 03:03:13;;;;;;;;;;;10.10;99.90;;;;;;8410199;28;19933;-78
2022/09/25 03:07:15;;;;;;;;;;;10.00;99.90;;;;;;8421344;28;19929;-78
2022/09/25 03:11:18;;;;;;;;;;;10.00;99.90;;;;;;8408342;28;20358;-78
2022/09/25 03:15:22;;;;;;;;;;;9.90;99.90;;;;;;8423358;28;19919;-78
2022/09/25 03:19:26;;;;;;;;;;;9.90;99.90;;;;;;8416560;28;19928;-78
2022/09/25 03:23:28;;;;;;;;;;;9.90;99.90;;;;;;8404577;28;19924;-78
2022/09/25 03:27:30;;;;;;;;;;;9.80;99.90;;;;;;8399546;28;20383;-78
2022/09/25 03:31:32;;;;;;;;;;;9.80;99.90;;;;;;8418873;28;19934;-79
2022/09/25 03:35:34;;;;;;;;;;;9.80;99.90;;;;;;8420660;28;19920;-78
2022/09/25 03:54:47;;;;;;;;;;;9.70;99.90;;;;;;8417134;28;19962;-79
2022/09/25 03:58:49;;;;;;;;;;;9.60;99.90;;;;;;8412600;28;19924;-78
2022/09/25 04:02:51;;;;;;;;;;;9.60;99.90;;;;;;8426747;28;20053;-79
2022/09/25 04:06:53;;;;;;;;;;;9.50;99.90;;;;;;8417267;28;19974;-78
2022/09/25 04:10:55;;;;;;;;;;;9.50;99.90;;;;;;8411551;28;19931;-79
2022/09/25 04:14:56;;;;;;;;;;;9.50;99.90;;;;;;8414836;28;19928;-79
2022/09/25 04:18:58;;;;;;;;;;;9.50;99.90;;;;;;8423149;28;20352;-79
2022/09/25 04:23:00;;;;;;;;;;;9.40;99.90;;;;;;8409441;28;20298;-79
2022/09/25 04:27:02;;;;;;;;;;;9.40;99.90;;;;;;8416362;28;20294;-78
2022/09/25 04:31:03;;;;;;;;;;;9.40;99.90;;;;;;8412205;28;19956;-79
2022/09/25 04:35:06;;;;;;;;;;;9.40;99.90;;;;;;8422961;28;20365;-78
2022/09/25 04:39:08;;;;;;;;;;;9.30;99.90;;;;;;8417277;28;19938;-79
2022/09/25 04:43:10;;;;;;;;;;;9.30;99.90;;;;;;8411615;28;20018;-78
2022/09/25 04:47:11;;;;;;;;;;;9.30;99.90;;;;;;8423463;28;19927;-78
2022/09/25 04:51:13;;;;;;;;;;;9.30;99.90;;;;;;8414452;28;19927;-78
2022/09/25 04:55:15;;;;;;;;;;;9.20;99.90;;;;;;8414572;28;19927;-79
2022/09/25 04:59:17;;;;;;;;;;;9.20;99.90;;;;;;8412579;28;20015;-78
2022/09/25 05:03:19;;;;;;;;;;;9.20;99.90;;;;;;8403222;28;19920;-78
2022/09/25 05:07:20;;;;;;;;;;;9.20;99.90;;;;;;8391575;28;19924;-78
2022/09/25 05:11:22;;;;;;;;;;;9.20;99.90;;;;;;8424728;27;19930;-78
2022/09/25 05:15:24;;;;;;;;;;;9.20;99.90;;;;;;8412789;28;19926;-78
2022/09/25 05:19:26;;;;;;;;;;;9.20;99.90;;;;;;8412311;28;20548;-78
2022/09/25 05:23:28;;;;;;;;;;;9.10;99.90;;;;;;8407438;28;20367;-79
2022/09/25 05:27:33;;;;;;;;;;;9.10;99.90;;;;;;8413064;28;20291;-78
2022/09/25 05:31:35;;;;;;;;;;;9.10;99.90;;;;;;8417701;28;19920;-78
2022/09/25 05:35:37;;;;;;;;;;;9.10;99.90;;;;;;8415807;28;19924;-78
2022/09/25 05:39:39;;;;;;;;;;;9.10;99.90;;;;;;8414126;28;20371;-78
2022/09/25 05:43:42;;;;;;;;;;;9.00;99.90;;;;;;8418263;28;19920;-78
2022/09/25 05:47:43;;;;;;;;;;;9.00;99.90;;;;;;8419883;28;20397;-78
2022/09/25 05:51:46;;;;;;;;;;;9.00;99.90;;;;;;8405098;28;19924;-79
2022/09/25 05:55:49;;;;;;;;;;;9.00;99.90;;;;;;8425532;28;19927;-78
2022/09/25 05:59:51;;;;;;;;;;;9.00;99.90;;;;;;8434906;28;19919;-78
2022/09/25 06:03:52;;;;;;;;;;;9.00;99.90;;;;;;8417243;28;19920;-78
2022/09/25 06:07:54;;;;;;;;;;;9.00;99.90;;;;;;8435632;28;20285;-78
2022/09/25 06:11:56;;;;;;;;;;;9.00;99.90;;;;;;8427249;28;19962;-78
2022/09/25 06:15:58;;;;;;;;;;;9.00;99.90;;;;;;8414492;28;19962;-78
2022/09/25 06:19:59;;;;;;;;;;;9.10;99.90;;;;;;8418332;28;20367;-78
2022/09/25 06:24:01;;;;;;;;;;;9.10;99.90;;;;;;8415984;28;20397;-78
2022/09/25 06:28:03;;;;;;;;;;;9.10;99.90;;;;;;8428222;28;19926;-78
2022/09/25 06:32:05;;;;;;;;;;;9.20;99.90;;;;;;8426006;28;19919;-78
2022/09/25 06:36:06;;;;;;;;;;;9.20;99.90;;;;;;8428591;28;20334;-78
2022/09/25 06:40:08;;;;;;;;;;;9.30;99.90;;;;;;8427806;28;20010;-78
2022/09/25 06:44:10;;;;;;;;;;;9.40;99.90;;;;;;8471287;27;20076;-79
2022/09/25 06:48:12;;;;;;;;;;;9.40;99.90;;;;;;8429916;28;19924;-78
2022/09/25 06:52:14;;;;;;;;;;;9.50;99.90;;;;;;8422987;28;19928;-78
2022/09/25 06:56:19;;;;;;;;;;;9.70;99.90;;;;;;8427100;28;20615;-78
2022/09/25 07:00:20;;;;;;;;;;;9.70;99.90;;;;;;8422138;28;19934;-78
2022/09/25 07:04:24;;;;;;;;;;;9.90;99.90;;;;;;8428047;28;19950;-79
2022/09/25 07:08:26;;;;;;;;;;;10.00;99.90;;;;;;8402628;28;19934;-78
2022/09/25 07:12:28;;;;;;;;;;;10.10;99.90;;;;;;8402997;28;20003;-78
2022/09/25 07:16:31;;;;;;;;;;;10.20;99.90;;;;;;8405571;28;20428;-78
2022/09/25 07:20:34;;;;;;;;;;;10.30;99.90;;;;;;8403622;28;20308;-79
2022/09/25 07:24:39;;;;;;;;;;;10.50;99.90;;;;;;8402425;28;19927;-78
2022/09/25 07:28:41;;;;;;;;;;;10.60;99.90;;;;;;8403946;28;19939;-79
2022/09/25 07:32:44;;;;;;;;;;;10.70;99.90;;;;;;8396261;28;19928;-78
2022/09/25 07:41:52;;;;;;;;;;;11.00;99.90;;;;;;8401684;28;19999;-78
2022/09/25 07:45:54;;;;;;;;;;;11.20;99.90;;;;;;8402667;28;20263;-78
2022/09/25 07:49:55;;;;;;;;;;;11.30;99.90;;;;;;8397674;28;19939;-79
2022/09/25 07:53:57;;;;;;;;;;;11.50;99.90;;;;;;8399920;28;19979;-78
2022/09/25 07:57:59;;;;;;;;;;;11.60;99.90;;;;;;8403669;28;19928;-78
2022/09/25 08:02:01;;;;;;;;;;;11.70;99.90;;;;;;8400377;28;19924;-78
2022/09/25 08:06:04;;;;;;;;;;;11.90;99.90;;;;;;8401966;28;20279;-78
2022/09/25 08:10:06;;;;;;;;;;;12.00;99.90;;;;;;8407509;28;19924;-78
2022/09/25 08:14:09;;;;;;;;;;;12.10;99.90;;;;;;8402068;28;20007;-77
2022/09/25 08:18:11;;;;;;;;;;;12.30;99.90;;;;;;8397969;28;19919;-78
2022/09/25 08:22:13;;;;;;;;;;;12.40;99.90;;;;;;8408688;28;19921;-78
2022/09/25 08:26:15;;;;;;;;;;;12.50;99.90;;;;;;8411880;28;19973;-78
2022/09/25 08:30:17;;;;;;;;;;;12.70;99.90;;;;;;8408403;28;19926;-78
2022/09/25 08:34:18;;;;;;;;;;;12.80;99.90;;;;;;8399211;28;19930;-78
2022/09/25 08:38:40;;;;;;;;;;;13.00;99.90;;;;;;8402092;28;19924;-79
2022/09/25 08:42:43;;;;;;;;;;;13.20;99.90;;;;;;8400127;28;20389;-79
2022/09/25 08:51:08;;;;;;;;;;;13.40;99.90;;;;;;8402439;28;20008;-79
2022/09/25 08:56:13;;;;;;;;;;;13.50;99.90;;;;;;8394578;28;19966;-78
2022/09/25 08:59:51;;;;;;;;;;;13.60;99.90;;;;;;8395558;28;19920;-79
2022/09/25 09:04:12;;;;;;;;;;;13.70;99.90;;;;;;8391146;28;19934;-79
2022/09/25 09:08:19;;;;;;;;;;;13.80;99.90;;;;;;8400990;28;20336;-79
2022/09/25 09:12:25;;;;;;;;;;;13.90;99.90;;;;;;8434120;27;20334;-79
2022/09/25 09:16:36;;;;;;;;;;;14.00;99.90;;;;;;8394251;28;19959;-78
2022/09/25 09:20:44;;;;;;;;;;;14.10;99.90;;;;;;8395913;28;19920;-79
2022/09/25 09:24:53;;;;;;;;;;;14.20;99.90;;;;;;8400145;28;19978;-78
2022/09/25 09:29:14;;;;;;;;;;;14.30;99.90;;;;;;8406269;28;19931;-78
2022/09/25 09:33:33;;;;;;;;;;;14.40;99.90;;;;;;8399070;28;20346;-79
2022/09/25 09:37:41;;;;;;;;;;;14.50;99.90;;;;;;8395877;28;19919;-78
2022/09/25 09:41:45;;;;;;;;;;;14.60;99.90;;;;;;8407362;28;20015;-78
2022/09/25 09:45:51;;;;;;;;;;;14.60;99.90;;;;;;8399798;28;19924;-78
2022/09/25 09:50:00;;;;;;;;;;;14.60;99.90;;;;;;8402641;28;19920;-79
2022/09/25 10:14:26;;;;;;;;;;;15.30;99.90;;;;;;8393381;28;20006;-78
2022/09/25 10:18:34;;;;;;;;;;;15.20;99.90;;;;;;8402090;28;19924;-78
2022/09/25 10:22:37;;;;;;;;;;;15.10;99.90;;;;;;8404506;28;20295;-79
2022/09/25 10:26:38;;;;;;;;;;;14.90;99.90;;;;;;8410194;28;20294;-78
2022/09/25 10:30:44;;;;;;;;;;;14.80;99.90;;;;;;8412607;27;19959;-78
2022/09/25 10:34:50;;;;;;;;;;;14.60;99.90;;;;;;8370972;28;20336;-78
2022/09/25 10:38:51;;;;;;;;;;;14.40;99.90;;;;;;8407065;28;19928;-78
2022/09/25 10:43:11;;;;;;;;;;;14.30;99.90;;;;;;8406797;28;19966;-78
2022/09/25 10:51:59;;;;;;;;;;;14.40;99.90;;;;;;8407054;28;20056;-78
2022/09/25 10:56:10;;;;;;;;;;;14.70;99.90;;;;;;8409475;28;19930;-78
2022/09/25 11:00:38;;;;;;;;;;;14.90;99.90;;;;;;8406933;28;19920;-78
2022/09/25 11:04:41;;;;;;;;;;;15.20;99.90;;;;;;8376564;28;19924;-78
2022/09/25 11:08:45;;;;;;;;;;;15.60;99.90;;;;;;8405092;28;20003;-78
2022/09/25 11:12:46;;;;;;;;;;;15.90;99.90;;;;;;8384957;28;20010;-79
2022/09/25 11:16:50;;;;;;;;;;;16.00;99.90;;;;;;8410085;28;19929;-79
2022/09/25 11:21:00;;;;;;;;;;;15.80;99.90;;;;;;8407234;28;19931;-79
2022/09/25 11:25:09;;;;;;;;;;;15.60;99.90;;;;;;8400251;28;19991;-79
2022/09/25 11:29:29;;;;;;;;;;;15.60;99.90;;;;;;8405017;28;19927;-79
2022/09/25 11:33:49;;;;;;;;;;;15.70;99.90;;;;;;8409453;28;19920;-78
2022/09/25 11:37:50;;;;;;;;;;;15.80;99.90;;;;;;8407415;28;19928;-79
2022/09/25 11:42:02;;;;;;;;;;;16.00;99.90;;;;;;8400677;28;20326;-78
2022/09/25 11:46:13;;;;;;;;;;;16.10;99.90;;;;;;8405873;28;19920;-78
2022/09/25 11:50:15;;;;;;;;;;;16.30;99.90;;;;;;8407289;28;19936;-78
2022/09/25 11:54:37;;;;;;;;;;;16.40;99.90;;;;;;8402046;28;19924;-78
2022/09/25 11:58:48;;;;;;;;;;;16.50;99.90;;;;;;8409279;28;19924;-79
2022/09/25 12:02:49;;;;;;;;;;;16.50;99.90;;;;;;8403623;28;19926;-78
2022/09/25 12:07:04;;;;;;;;;;;16.50;99.90;;;;;;8405986;28;19951;-79
2022/09/25 12:11:12;;;;;;;;;;;16.50;99.90;;;;;;8404207;28;20006;-79
2022/09/25 12:15:25;;;;;;;;;;;16.50;99.90;;;;;;8399281;28;19928;-79
2022/09/25 12:19:47;;;;;;;;;;;16.50;99.90;;;;;;8386836;28;20591;-79
2022/09/25 12:23:56;;;;;;;;;;;16.50;99.90;;;;;;8385835;28;19920;-79
2022/09/25 12:28:05;;;;;;;;;;;16.60;99.90;;;;;;8368400;28;1046636;-79
2022/09/25 12:32:27;;;;;;;;;;;16.70;99.90;;;;;;8407695;28;20003;-79
2022/09/25 12:36:40;;;;;;;;;;;16.80;99.90;;;;;;8408130;28;19920;-78
2022/09/25 12:40:52;;;;;;;;;;;16.80;99.90;;;;;;8419435;27;19977;-80
2022/09/25 12:45:00;;;;;;;;;;;16.80;99.90;;;;;;8400111;28;19926;-79
2022/09/25 12:49:10;;;;;;;;;;;17.00;99.90;;;;;;8392362;28;20501;-79
2022/09/25 12:53:24;;;;;;;;;;;17.00;99.90;;;;;;8402939;28;19926;-78
2022/09/25 12:57:38;;;;;;;;;;;17.00;99.90;;;;;;8403744;28;20038;-79
2022/09/25 13:01:56;;;;;;;;;;;17.10;99.90;;;;;;8386458;28;20459;-79
2022/09/25 13:06:16;;;;;;;;;;;17.20;99.90;;;;;;8404707;28;20259;-78
2022/09/25 13:10:24;;;;;;;;;;;17.30;99.90;;;;;;8398774;28;20256;-78
2022/09/25 13:14:29;;;;;;;;;;;17.30;99.90;;;;;;8395405;28;20389;-79
2022/09/25 13:18:33;;;;;;;;;;;17.20;99.90;;;;;;8398383;28;19920;-78
2022/09/25 13:22:39;;;;;;;;;;;17.10;99.90;;;;;;8388897;28;19930;-79
2022/09/25 13:26:46;;;;;;;;;;;17.00;99.90;;;;;;8403151;28;20019;-79
2022/09/25 13:31:00;;;;;;;;;;;16.90;99.90;;;;;;8410126;28;19931;-79
2022/09/25 13:35:14;;;;;;;;;;;16.70;99.90;;;;;;8405578;28;19943;-79
2022/09/25 13:43:40;;;;;;;;;;;16.50;99.90;;;;;;8403081;28;19928;-79
2022/09/25 13:47:52;;;;;;;;;;;16.40;99.90;;;;;;8404835;28;19951;-79
2022/09/25 13:51:54;;;;;;;;;;;16.40;99.90;;;;;;8403119;28;20033;-79
2022/09/25 13:55:55;;;;;;;;;;;16.30;99.90;;;;;;8404226;28;20194;-79
2022/09/25 14:00:00;;;;;;;;;;;16.10;99.90;;;;;;8397477;28;19974;-78
2022/09/25 14:04:14;;;;;;;;;;;16.00;99.90;;;;;;8404860;28;19920;-79
2022/09/25 14:08:16;;;;;;;;;;;15.90;99.90;;;;;;8415319;28;20659;-78
2022/09/25 14:12:33;;;;;;;;;;;15.90;99.90;;;;;;8400402;28;20385;-79
2022/09/25 14:16:41;;;;;;;;;;;15.80;99.90;;;;;;8397613;28;20011;-79
2022/09/25 14:20:43;;;;;;;;;;;15.80;99.90;;;;;;8384211;28;19930;-79
2022/09/25 14:24:46;;;;;;;;;;;15.70;99.90;;;;;;8374678;28;19928;-78
2022/09/25 14:28:49;;;;;;;;;;;15.70;99.90;;;;;;8381851;28;19924;-79
2022/09/25 14:33:07;;;;;;;;;;;15.70;99.90;;;;;;8384920;28;20302;-79
2022/09/25 14:37:28;;;;;;;;;;;15.70;99.90;;;;;;8380447;28;20306;-79
2022/09/25 14:41:42;;;;;;;;;;;15.70;99.90;;;;;;8407892;28;20310;-78
2022/09/25 14:45:56;;;;;;;;;;;15.70;99.90;;;;;;8399442;28;19945;-79
2022/09/25 14:49:58;;;;;;;;;;;15.70;99.90;;;;;;8407691;28;19920;-78
2022/09/25 14:54:01;;;;;;;;;;;15.70;99.90;;;;;;8402609;28;19932;-78
2022/09/25 14:58:08;;;;;;;;;;;15.70;99.90;;;;;;8387183;28;19952;-79
2022/09/25 15:02:15;;;;;;;;;;;15.70;99.90;;;;;;8406515;28;20019;-78
2022/09/25 15:06:44;;;;;;;;;;;15.80;99.90;;;;;;8416067;27;19928;-78
2022/09/25 15:10:45;;;;;;;;;;;15.90;99.90;;;;;;8405867;28;20363;-79
2022/09/25 15:15:06;;;;;;;;;;;16.00;99.90;;;;;;8411156;28;19924;-78
2022/09/25 15:19:26;;;;;;;;;;;16.10;99.90;;;;;;8408806;28;19967;-78
2022/09/25 15:23:29;;;;;;;;;;;16.20;99.90;;;;;;8408881;28;19926;-78
2022/09/25 15:27:41;;;;;;;;;;;16.20;99.90;;;;;;8413268;28;20000;-78
2022/09/25 15:31:49;;;;;;;;;;;16.30;99.90;;;;;;8385732;28;19924;-78
2022/09/25 15:35:54;;;;;;;;;;;16.40;99.90;;;;;;8408341;28;19969;-78
2022/09/25 15:39:59;;;;;;;;;;;16.40;99.90;;;;;;8396107;28;19924;-79
2022/09/25 15:44:12;;;;;;;;;;;16.40;99.90;;;;;;8390726;28;22697;-79
2022/09/25 15:48:20;;;;;;;;;;;16.40;99.90;;;;;;8389262;28;19921;-79
2022/09/25 15:52:24;;;;;;;;;;;16.40;99.90;;;;;;8381909;28;19924;-78
2022/09/25 15:56:27;;;;;;;;;;;16.40;99.90;;;;;;8400696;28;19932;-79
2022/09/25 16:04:49;;;;;;;;;;;16.50;99.90;;;;;;8392374;28;20180;-79
2022/09/25 16:09:06;;;;;;;;;;;16.50;99.90;;;;;;8403572;28;19946;-79
2022/09/25 16:13:19;;;;;;;;;;;16.50;99.90;;;;;;8401288;28;20402;-79
2022/09/25 16:17:23;;;;;;;;;;;16.40;99.90;;;;;;8388931;28;19924;-79
2022/09/25 16:21:30;;;;;;;;;;;16.40;99.90;;;;;;8398224;28;19928;-78
2022/09/25 16:25:34;;;;;;;;;;;16.30;99.90;;;;;;8391270;28;19974;-79
2022/09/25 16:29:38;;;;;;;;;;;16.10;99.90;;;;;;8384038;28;19928;-79
2022/09/25 16:33:41;;;;;;;;;;;16.00;99.90;;;;;;8398791;28;19958;-79
2022/09/25 16:37:42;;;;;;;;;;;15.90;99.90;;;;;;8401148;28;19936;-79
2022/09/25 16:41:48;;;;;;;;;;;15.80;99.90;;;;;;8403772;28;20014;-79
2022/09/25 16:45:59;;;;;;;;;;;15.80;99.90;;;;;;8397241;28;19926;-79
2022/09/25 16:50:01;;;;;;;;;;;15.80;99.90;;;;;;8406743;28;19990;-79
2022/09/25 16:54:07;;;;;;;;;;;15.70;99.90;;;;;;8384966;28;20295;-80
2022/09/25 16:58:09;;;;;;;;;;;15.70;99.90;;;;;;8405127;28;19924;-79
2022/09/25 17:02:40;;;;;;;;;;;15.70;99.90;;;;;;8411030;28;19955;-79
2022/09/25 17:06:43;;;;;;;;;;;15.70;99.90;;;;;;8397043;28;19935;-78
2022/09/25 17:10:46;;;;;;;;;;;15.60;99.90;;;;;;8395506;28;20018;-79
2022/09/25 17:14:48;;;;;;;;;;;15.60;99.90;;;;;;8401868;28;20015;-79
2022/09/25 17:18:50;;;;;;;;;;;15.60;99.90;;;;;;8397006;28;20411;-79
2022/09/25 17:22:52;;;;;;;;;;;15.50;99.90;;;;;;8397915;28;19924;-79
2022/09/25 17:26:54;;;;;;;;;;;15.50;99.90;;;;;;8397362;28;19926;-79
2022/09/25 17:30:55;;;;;;;;;;;15.40;99.90;;;;;;8403106;28;19928;-79
2022/09/25 17:34:59;;;;;;;;;;;15.30;99.90;;;;;;8400753;28;19963;-79
2022/09/25 17:39:00;;;;;;;;;;;15.20;99.90;;;;;;8400902;28;19920;-80
2022/09/25 17:43:02;;;;;;;;;;;15.10;99.90;;;;;;8390534;28;20030;-79
2022/09/25 17:47:05;;;;;;;;;;;15.00;99.90;;;;;;8406320;28;19927;-79
2022/09/25 17:51:25;;;;;;;;;;;14.90;99.90;;;;;;8395311;28;20375;-79
2022/09/25 17:55:28;;;;;;;;;;;14.80;99.90;;;;;;8399409;28;19928;-79
2022/09/25 17:59:30;;;;;;;;;;;14.70;99.90;;;;;;8402958;28;19951;-80
2022/09/25 18:03:31;;;;;;;;;;;14.60;99.90;;;;;;8397476;28;20393;-79
2022/09/25 18:07:33;;;;;;;;;;;14.50;99.90;;;;;;8396660;28;20007;-79
2022/09/25 18:11:35;;;;;;;;;;;14.40;99.90;;;;;;8400057;28;19935;-79
2022/09/25 18:15:40;;;;;;;;;;;14.40;99.90;;;;;;8396367;28;19920;-80
2022/09/25 18:24:02;;;;;;;;;;;14.30;99.90;;;;;;8393432;28;19959;-80
2022/09/25 18:28:04;;;;;;;;;;;14.20;99.90;;;;;;8382254;28;19938;-79
2022/09/25 18:32:06;;;;;;;;;;;14.10;99.90;;;;;;8392546;28;19924;-79
2022/09/25 18:36:08;;;;;;;;;;;14.00;99.90;;;;;;8383742;28;19928;-79
2022/09/25 18:40:11;;;;;;;;;;;14.00;99.90;;;;;;8395154;28;19920;-79
2022/09/25 18:44:12;;;;;;;;;;;13.90;99.90;;;;;;8407890;28;19928;-79
2022/09/25 18:48:14;;;;;;;;;;;13.90;99.90;;;;;;8396766;28;19924;-79
2022/09/25 18:52:16;;;;;;;;;;;13.80;99.90;;;;;;8404352;28;20042;-79
2022/09/25 18:56:20;;;;;;;;;;;13.70;99.90;;;;;;8405208;28;19981;-80
2022/09/25 19:00:21;;;;;;;;;;;13.60;99.90;;;;;;8392067;28;19947;-79
2022/09/25 19:04:24;;;;;;;;;;;13.50;99.90;;;;;;8388320;28;19926;-79
2022/09/25 19:08:26;;;;;;;;;;;13.50;99.90;;;;;;8409658;28;19924;-79
2022/09/25 19:12:28;;;;;;;;;;;13.40;99.90;;;;;;8404189;28;19940;-79
2022/09/25 19:16:31;;;;;;;;;;;13.40;99.90;;;;;;8393331;28;20002;-79
2022/09/25 19:20:52;;;;;;;;;;;13.30;99.90;;;;;;8392714;28;20272;-79
2022/09/25 19:24:54;;;;;;;;;;;13.30;99.90;;;;;;8388387;28;19934;-79
2022/09/25 19:28:55;;;;;;;;;;;13.20;99.90;;;;;;8391964;28;20314;-79
2022/09/25 19:32:57;;;;;;;;;;;13.20;99.90;;;;;;8400520;28;19920;-79
2022/09/25 19:36:59;;;;;;;;;;;13.10;99.90;;;;;;8405602;28;20058;-79
2022/09/25 19:41:01;;;;;;;;;;;13.20;99.90;;;;;;8391913;28;19950;-79
2022/09/25 19:45:03;;;;;;;;;;;13.10;99.90;;;;;;8408546;28;19934;-79
2022/09/25 19:49:05;;;;;;;;;;;13.10;99.90;;;;;;8408015;28;19928;-79
2022/09/25 19:53:07;;;;;;;;;;;13.00;99.90;;;;;;8387895;28;19943;-79
2022/09/25 19:57:09;;;;;;;;;;;13.00;99.90;;;;;;8389576;28;19928;-82
2022/09/25 20:01:12;;;;;;;;;;;12.90;99.90;;;;;;8405155;28;19981;-79
2022/09/25 20:05:15;;;;;;;;;;;12.90;99.90;;;;;;8402691;28;19927;-80
2022/09/25 20:09:16;;;;;;;;;;;12.80;99.90;;;;;;8402900;28;20050;-79
2022/09/25 20:13:18;;;;;;;;;;;12.80;99.90;;;;;;8405655;28;20015;-79
2022/09/25 20:17:20;;;;;;;;;;;12.70;99.90;;;;;;8403287;28;19973;-79
2022/09/25 20:21:22;;;;;;;;;;;12.70;99.90;;;;;;8401072;28;19924;-80
2022/09/25 20:25:26;;;;;;;;;;;12.70;99.90;;;;;;8417530;28;19928;-79
2022/09/25 20:29:28;;;;;;;;;;;12.60;99.90;;;;;;8408963;27;19982;-79
2022/09/25 20:33:30;;;;;;;;;;;12.60;99.90;;;;;;8393326;28;19924;-80
2022/09/25 20:37:35;;;;;;;;;;;12.60;99.90;;;;;;8375693;28;19924;-79
2022/09/25 20:41:37;;;;;;;;;;;12.60;99.90;;;;;;8393324;28;19921;-79
2022/09/25 20:45:38;;;;;;;;;;;12.60;99.90;;;;;;8386310;28;19920;-79
2022/09/25 20:49:40;;;;;;;;;;;12.60;99.90;;;;;;8393092;28;19924;-79
2022/09/25 20:53:42;;;;;;;;;;;12.60;99.90;;;;;;8383526;28;19931;-78
2022/09/25 20:57:43;;;;;;;;;;;12.50;99.90;;;;;;8383956;28;19924;-79
2022/09/25 21:01:45;;;;;;;;;;;12.50;99.90;;;;;;8382747;28;19931;-80
2022/09/25 21:05:47;;;;;;;;;;;12.50;99.90;;;;;;8380114;28;19924;-79
2022/09/25 21:09:49;;;;;;;;;;;12.50;99.90;;;;;;8417784;28;19925;-79
2022/09/25 21:13:51;;;;;;;;;;;12.50;99.90;;;;;;8387736;28;20382;-79
2022/09/25 21:17:53;;;;;;;;;;;12.40;99.90;;;;;;8397793;28;19924;-80
2022/09/25 21:21:55;;;;;;;;;;;12.40;99.90;;;;;;8404992;28;19920;-79
2022/09/25 21:26:12;;;;;;;;;;;12.50;99.90;;;;;;8416499;28;19920;-79
2022/09/25 21:30:14;;;;;;;;;;;12.50;99.90;;;;;;8393486;28;20458;-79
2022/09/25 21:34:16;;;;;;;;;;;12.50;99.90;;;;;;8396611;28;19929;-79
2022/09/25 21:38:17;;;;;;;;;;;12.50;99.90;;;;;;8396543;28;19971;-79
2022/09/25 21:42:20;;;;;;;;;;;12.50;99.90;;;;;;8404156;28;20446;-79
2022/09/25 21:46:23;;;;;;;;;;;12.60;99.90;;;;;;8406492;28;20351;-79
2022/09/25 21:50:24;;;;;;;;;;;12.60;99.90;;;;;;8395402;28;20358;-79
2022/09/25 21:54:27;;;;;;;;;;;12.60;99.90;;;;;;8416559;28;19920;-79
2022/09/25 21:58:29;;;;;;;;;;;12.70;99.90;;;;;;8401826;28;20282;-80
2022/09/25 22:02:31;;;;;;;;;;;12.70;99.90;;;;;;8410435;28;20022;-80
2022/09/25 22:06:34;;;;;;;;;;;12.70;99.90;;;;;;8416203;28;19934;-79
2022/09/25 22:10:35;;;;;;;;;;;12.70;99.90;;;;;;8434391;28;19928;-80
2022/09/25 22:14:37;;;;;;;;;;;12.70;99.90;;;;;;8426352;28;19920;-80
2022/09/25 22:18:50;;;;;;;;;;;12.70;99.90;;;;;;8398107;28;19920;-79
2022/09/25 22:22:51;;;;;;;;;;;12.70;99.90;;;;;;8425390;28;19926;-80
2022/09/25 22:26:54;;;;;;;;;;;12.70;99.90;;;;;;8415029;28;19932;-79
2022/09/25 22:30:55;;;;;;;;;;;12.70;99.90;;;;;;8419454;28;20657;-79
2022/09/25 22:34:57;;;;;;;;;;;12.70;99.90;;;;;;8395228;28;19920;-79
2022/09/25 22:38:59;;;;;;;;;;;12.70;99.90;;;;;;8415698;28;19920;-79
2022/09/25 22:53:08;;;;;;;;;;;12.70;99.90;;;;;;8407437;28;20392;-79
2022/09/25 23:12:26;;;;;;;;;;;12.70;99.90;;;;;;8412103;28;19961;-79
2022/09/25 23:16:31;;;;;;;;;;;12.60;99.90;;;;;;8418588;28;19970;-80
2022/09/25 23:20:33;;;;;;;;;;;12.60;99.90;;;;;;8407283;28;19924;-80
2022/09/25 23:24:34;;;;;;;;;;;12.70;99.90;;;;;;8417764;28;19934;-80
2022/09/25 23:28:37;;;;;;;;;;;12.70;99.90;;;;;;8411614;28;19924;-79
2022/09/25 23:32:39;;;;;;;;;;;12.70;99.90;;;;;;8405030;28;20312;-79
2022/09/25 23:36:41;;;;;;;;;;;12.70;99.90;;;;;;8411980;28;19924;-79
2022/09/25 23:40:42;;;;;;;;;;;12.70;99.90;;;;;;8406132;28;20007;-79
2022/09/25 23:44:44;;;;;;;;;;;12.70;99.90;;;;;;8411674;28;19920;-80
2022/09/25 23:48:45;;;;;;;;;;;12.70;99.90;;;;;;8403264;28;19926;-79
2022/09/25 23:52:47;;;;;;;;;;;12.70;99.90;;;;;;8408731;28;20002;-79
2022/09/25 23:56:49;;;;;;;;;;;12.70;99.90;;;;;;8408343;28;19931;-79
